Avilla, IN

12:27 AM EST on January 31, 2015 (GMT -0500)
APRSWXNET Kendallville IN US | Change Station
CLOSE
Current Station
Personal Weather Station
Location: Avilla, IN
Elevation: 1000 ft
Nearby Weather Stations
Active Advisory: Winter Storm Watch

Elev 1000 ft 41.40 °N, 85.20 °W | Updated 26 minutes ago

Partly Cloudy
Partly Cloudy
16 °F
Feels Like 16 °F
N
0
Wind Variable Wind from SSW
Gusts 1.0 mph

Today
High -- | Low -- °F
--% Chance of Precip.
Yesterday
High -- | Low -- °F
Precip. -- in
7:53 AM 5:55 PM
Waxing Gibbous, 87% visible
Pressure 30.39 in
Visibility 10.0 miles
Clouds Scattered Clouds 9500 ft
Windchill 16 °F
Dew Point 13 °F
Humidity 86%
Rainfall 0.00 in
Snow Depth Not available.
UV 0 out of 12
Pollen .10 out of 12
Air Quality Not available.
Flu Activity Not available.
METAR KGWB 310515Z AUTO 00000KT 10SM SCT095 M08/M11 A3039 RMK AO2

More Conditions Fewer Conditions

Pressure 30.39 in
Visibility 10.0 miles
Clouds Scattered Clouds 9500 ft
Windchill 16 °F
Dew Point 13 °F
Humidity 86%
Rainfall 0.00 in
Snow Depth Not available.
UV 0 out of 12
Pollen .10 out of 12
Air Quality Not available.
Flu Activity Not available.
METAR KGWB 310515Z AUTO 00000KT 10SM SCT095 M08/M11 A3039 RMK AO2

More Conditions Fewer Conditions

10-Day Weather Forecast

Almanac

Astronomy

Jan. 31, 2015 Rise Set
Actual Time
Civil Twilight
Nautical Twilight
Astronomical Twilight
Moon
Length of Visible Light
Length of Day
Tomorrow will be .
, % of the Moon is Illuminated

Today's Extremes

State Highs State Lows

Community

WunderPhotos

Upload Photos

1,792,005 photos uploaded!

WunderBlogs® & News

Nearby

Air Quality

  Air Quality AQ Index Pollutant
Not available.

Snow Depth

Station Depth Elevation

Earthquake Activity

City Distance Mag. Time & Date
Minimum magnitude displayed is 2.5.

Coastal Water Temperatures

Place Temperature

Nearby Weather Stations